AWC1886 UAAA-UZTT
Flight info
| Callsign | AWC1886 |
|---|---|
| Flight time | 1h 24m |
| Altitude | 38000 |
| Route | LAKEL1B LAKEL L135 MAMIR P984 TISIB TISIB2T |
| Aircraft | A320/M-SDE3FGHIRWY/LB1 |
Departure
| Time | 2026-04-28 11:41 |
|---|---|
| Airport | Almaty International Airport (UAAA) |
Arrival
| Time | 2026-04-28 13:06 |
|---|---|
| Airport | Tashkent International Airport (UZTT) |
| Time | Latitude | Longitude | Altitude | Speed | Heading |
|---|---|---|---|---|---|
| 2026-04-28 11:27 | 43.35118 | 77.02056 | 2232 ft | 0 kts | 0° |
| 2026-04-28 11:35 | 43.35102 | 77.02055 | 2232 ft | 4 kts | 6° |
| 2026-04-28 11:36 | 43.35075 | 77.02051 | 2232 ft | 4 kts | 3° |
| 2026-04-28 11:36 | 43.35055 | 77.02049 | 2232 ft | 3 kts | 11° |
| 2026-04-28 11:36 | 43.35030 | 77.02039 | 2232 ft | 4 kts | 26° |
| 2026-04-28 11:36 | 43.35018 | 77.02031 | 2232 ft | 1 kts | 26° |
| 2026-04-28 11:37 | 43.35017 | 77.02030 | 2232 ft | 0 kts | 26° |
| 2026-04-28 11:39 | 43.35026 | 77.02043 | 2232 ft | 5 kts | 52° |
| 2026-04-28 11:39 | 43.35022 | 77.02119 | 2232 ft | 12 kts | 104° |
| 2026-04-28 11:39 | 43.34974 | 77.02252 | 2232 ft | 16 kts | 131° |
| 2026-04-28 11:39 | 43.34911 | 77.02332 | 2232 ft | 8 kts | 138° |
| 2026-04-28 11:40 | 43.34865 | 77.02390 | 2232 ft | 9 kts | 138° |
| 2026-04-28 11:40 | 43.34811 | 77.02456 | 2233 ft | 12 kts | 139° |
| 2026-04-28 11:40 | 43.34763 | 77.02559 | 2233 ft | 15 kts | 83° |
| 2026-04-28 11:40 | 43.34825 | 77.02708 | 2228 ft | 23 kts | 54° |
| 2026-04-28 11:41 | 43.35037 | 77.03129 | 2233 ft | 92 kts | 56° |
| 2026-04-28 11:41 | 43.35526 | 77.04108 | 2234 ft | 154 kts | 55° |
| 2026-04-28 11:41 | 43.36181 | 77.05405 | 2797 ft | 165 kts | 54° |
| 2026-04-28 11:41 | 43.36833 | 77.06703 | 3653 ft | 167 kts | 55° |
| 2026-04-28 11:42 | 43.37505 | 77.08053 | 4479 ft | 177 kts | 56° |
| 2026-04-28 11:42 | 43.38235 | 77.09530 | 5018 ft | 197 kts | 56° |
| 2026-04-28 11:42 | 43.39047 | 77.11176 | 5532 ft | 219 kts | 56° |
| 2026-04-28 11:42 | 43.39952 | 77.13007 | 6049 ft | 246 kts | 55° |
| 2026-04-28 11:43 | 43.40952 | 77.15026 | 6904 ft | 263 kts | 55° |
| 2026-04-28 11:43 | 43.42288 | 77.16816 | 7740 ft | 278 kts | 27° |
| 2026-04-28 11:43 | 43.44163 | 77.17382 | 8578 ft | 287 kts | 356° |
| 2026-04-28 11:43 | 43.46106 | 77.16659 | 9083 ft | 293 kts | 336° |
| 2026-04-28 11:44 | 43.47883 | 77.15356 | 9011 ft | 287 kts | 328° |
| 2026-04-28 11:44 | 43.49577 | 77.13888 | 9007 ft | 287 kts | 328° |
| 2026-04-28 11:44 | 43.51274 | 77.12434 | 8998 ft | 287 kts | 325° |
| 2026-04-28 11:44 | 43.52717 | 77.10546 | 8998 ft | 288 kts | 308° |
| 2026-04-28 11:45 | 43.53733 | 77.08174 | 9071 ft | 291 kts | 292° |
| 2026-04-28 11:45 | 43.54212 | 77.05427 | 10010 ft | 296 kts | 275° |
| 2026-04-28 11:45 | 43.54364 | 77.02522 | 10683 ft | 315 kts | 274° |
| 2026-04-28 11:45 | 43.54541 | 76.99428 | 11284 ft | 330 kts | 278° |
| 2026-04-28 11:46 | 43.55117 | 76.96338 | 12169 ft | 336 kts | 291° |
| 2026-04-28 11:46 | 43.56185 | 76.93454 | 13089 ft | 341 kts | 303° |
| 2026-04-28 11:46 | 43.57711 | 76.90938 | 13992 ft | 345 kts | 314° |
| 2026-04-28 11:46 | 43.59394 | 76.88549 | 14840 ft | 348 kts | 314° |
| 2026-04-28 11:47 | 43.61085 | 76.86138 | 15675 ft | 350 kts | 313° |
| 2026-04-28 11:47 | 43.62784 | 76.83707 | 16520 ft | 353 kts | 313° |
| 2026-04-28 11:47 | 43.64493 | 76.81258 | 17353 ft | 356 kts | 313° |
| 2026-04-28 11:47 | 43.66200 | 76.78811 | 18211 ft | 359 kts | 313° |
| 2026-04-28 11:48 | 43.67938 | 76.76323 | 18981 ft | 361 kts | 313° |
| 2026-04-28 11:48 | 43.69691 | 76.73815 | 19756 ft | 364 kts | 313° |
| 2026-04-28 11:48 | 43.71459 | 76.71282 | 20548 ft | 367 kts | 313° |
| 2026-04-28 11:48 | 43.73272 | 76.68766 | 21307 ft | 370 kts | 315° |
| 2026-04-28 11:49 | 43.75000 | 76.66120 | 22042 ft | 372 kts | 304° |
| 2026-04-28 11:49 | 43.76093 | 76.62882 | 22764 ft | 375 kts | 284° |
| 2026-04-28 11:49 | 43.76312 | 76.59282 | 23495 ft | 380 kts | 267° |
| 2026-04-28 11:49 | 43.75801 | 76.55680 | 24106 ft | 385 kts | 254° |
| 2026-04-28 11:50 | 43.74716 | 76.52268 | 24721 ft | 391 kts | 243° |
| 2026-04-28 11:50 | 43.73116 | 76.49197 | 25299 ft | 398 kts | 231° |
| 2026-04-28 11:50 | 43.71015 | 76.46655 | 25857 ft | 407 kts | 217° |
| 2026-04-28 11:50 | 43.68466 | 76.44874 | 26418 ft | 417 kts | 203° |
| 2026-04-28 11:51 | 43.65600 | 76.44052 | 26966 ft | 427 kts | 188° |
| 2026-04-28 11:51 | 43.62631 | 76.44289 | 27497 ft | 438 kts | 172° |
| 2026-04-28 11:51 | 43.59678 | 76.45654 | 28020 ft | 449 kts | 157° |
| 2026-04-28 11:51 | 43.57091 | 76.48057 | 28542 ft | 459 kts | 141° |
| 2026-04-28 11:52 | 43.55013 | 76.51442 | 29052 ft | 468 kts | 123° |
| 2026-04-28 11:52 | 43.53428 | 76.55388 | 29530 ft | 472 kts | 123° |
| 2026-04-28 11:52 | 43.51517 | 76.59057 | 29999 ft | 472 kts | 134° |
| 2026-04-28 11:52 | 43.49157 | 76.62189 | 30416 ft | 471 kts | 144° |
| 2026-04-28 11:53 | 43.46524 | 76.64852 | 30825 ft | 470 kts | 150° |
| 2026-04-28 11:53 | 43.43754 | 76.67294 | 31232 ft | 472 kts | 153° |
| 2026-04-28 11:53 | 43.40963 | 76.69714 | 31652 ft | 475 kts | 152° |
| 2026-04-28 11:53 | 43.38203 | 76.72241 | 32061 ft | 479 kts | 150° |
| 2026-04-28 11:54 | 43.35530 | 76.74887 | 32626 ft | 479 kts | 148° |
| 2026-04-28 11:54 | 43.32887 | 76.77673 | 33203 ft | 479 kts | 147° |
| 2026-04-28 11:54 | 43.30279 | 76.80517 | 33803 ft | 478 kts | 147° |
| 2026-04-28 11:54 | 43.27622 | 76.83236 | 34337 ft | 472 kts | 155° |
| 2026-04-28 11:55 | 43.24703 | 76.85131 | 34779 ft | 459 kts | 169° |
| 2026-04-28 11:55 | 43.21637 | 76.86011 | 35245 ft | 444 kts | 183° |
| 2026-04-28 11:55 | 43.18594 | 76.85925 | 35697 ft | 432 kts | 195° |
| 2026-04-28 11:55 | 43.15704 | 76.85003 | 36145 ft | 421 kts | 206° |
| 2026-04-28 11:56 | 43.13065 | 76.83367 | 36603 ft | 413 kts | 216° |
| 2026-04-28 11:56 | 43.11491 | 76.81941 | 36875 ft | 408 kts | 222° |
| 2026-04-28 11:56 | 43.09216 | 76.79612 | 37306 ft | 408 kts | 222° |
| 2026-04-28 11:56 | 43.06933 | 76.77279 | 37730 ft | 409 kts | 222° |
| 2026-04-28 11:57 | 43.04644 | 76.74949 | 38036 ft | 410 kts | 222° |
| 2026-04-28 11:57 | 43.02359 | 76.72628 | 38096 ft | 408 kts | 222° |
| 2026-04-28 11:57 | 42.97815 | 76.68014 | 38098 ft | 407 kts | 222° |
| 2026-04-28 11:58 | 42.93307 | 76.63367 | 38097 ft | 403 kts | 226° |
| 2026-04-28 11:58 | 42.89849 | 76.57520 | 38098 ft | 393 kts | 245° |
| 2026-04-28 11:59 | 42.87571 | 76.50776 | 38112 ft | 391 kts | 248° |
| 2026-04-28 11:59 | 42.85315 | 76.44051 | 38105 ft | 390 kts | 248° |
| 2026-04-28 12:00 | 42.83054 | 76.37328 | 38107 ft | 391 kts | 248° |
| 2026-04-28 12:00 | 42.80782 | 76.30605 | 38094 ft | 390 kts | 248° |
| 2026-04-28 12:01 | 42.78531 | 76.23953 | 38088 ft | 389 kts | 248° |
| 2026-04-28 12:01 | 42.76271 | 76.17253 | 38090 ft | 389 kts | 248° |
| 2026-04-28 12:02 | 42.74006 | 76.10565 | 38084 ft | 389 kts | 247° |
| 2026-04-28 12:02 | 42.71730 | 76.03890 | 38074 ft | 389 kts | 247° |
| 2026-04-28 12:03 | 42.69460 | 75.97223 | 38070 ft | 388 kts | 247° |
| 2026-04-28 12:03 | 42.67190 | 75.90569 | 38064 ft | 388 kts | 247° |
| 2026-04-28 12:04 | 42.64907 | 75.83911 | 38061 ft | 389 kts | 247° |
| 2026-04-28 12:04 | 42.62621 | 75.77258 | 38044 ft | 388 kts | 247° |
| 2026-04-28 12:05 | 42.60336 | 75.70628 | 38059 ft | 388 kts | 247° |
| 2026-04-28 12:05 | 42.58037 | 75.63995 | 38066 ft | 388 kts | 247° |
| 2026-04-28 12:06 | 42.55745 | 75.57362 | 38061 ft | 388 kts | 247° |
| 2026-04-28 12:06 | 42.53444 | 75.50722 | 38068 ft | 389 kts | 247° |
| 2026-04-28 12:07 | 42.51141 | 75.44095 | 38073 ft | 389 kts | 246° |
| 2026-04-28 12:07 | 42.48832 | 75.37471 | 38051 ft | 388 kts | 246° |
| 2026-04-28 12:08 | 42.46533 | 75.30885 | 38087 ft | 385 kts | 246° |
| 2026-04-28 12:08 | 42.44237 | 75.24338 | 38092 ft | 384 kts | 246° |
| 2026-04-28 12:09 | 42.42114 | 75.17728 | 38112 ft | 383 kts | 252° |
| 2026-04-28 12:09 | 42.40369 | 75.10915 | 38113 ft | 383 kts | 252° |
| 2026-04-28 12:10 | 42.38634 | 75.04152 | 38117 ft | 383 kts | 251° |
| 2026-04-28 12:10 | 42.36885 | 74.97359 | 38118 ft | 382 kts | 251° |
| 2026-04-28 12:11 | 42.35139 | 74.90568 | 38125 ft | 382 kts | 251° |
| 2026-04-28 12:11 | 42.33380 | 74.83787 | 38120 ft | 382 kts | 251° |
| 2026-04-28 12:12 | 42.31612 | 74.77005 | 38121 ft | 383 kts | 251° |
| 2026-04-28 12:12 | 42.29856 | 74.70228 | 38117 ft | 381 kts | 251° |
| 2026-04-28 12:13 | 42.28103 | 74.63474 | 38110 ft | 381 kts | 251° |
| 2026-04-28 12:13 | 42.26327 | 74.56716 | 38111 ft | 382 kts | 251° |
| 2026-04-28 12:14 | 42.24546 | 74.49961 | 38114 ft | 381 kts | 251° |
| 2026-04-28 12:14 | 42.22777 | 74.43219 | 38093 ft | 380 kts | 251° |
| 2026-04-28 12:15 | 42.21013 | 74.36534 | 38092 ft | 381 kts | 251° |
| 2026-04-28 12:15 | 42.19213 | 74.29746 | 38073 ft | 382 kts | 251° |
| 2026-04-28 12:16 | 42.17425 | 74.23004 | 38079 ft | 382 kts | 251° |
| 2026-04-28 12:16 | 42.15632 | 74.16253 | 38054 ft | 382 kts | 250° |
| 2026-04-28 12:17 | 42.13845 | 74.09557 | 38053 ft | 382 kts | 250° |
| 2026-04-28 12:17 | 42.12043 | 74.02828 | 38049 ft | 382 kts | 250° |
| 2026-04-28 12:18 | 42.10233 | 73.96101 | 38045 ft | 382 kts | 250° |
| 2026-04-28 12:18 | 42.08420 | 73.89378 | 38043 ft | 382 kts | 250° |
| 2026-04-28 12:19 | 42.06606 | 73.82656 | 38048 ft | 382 kts | 250° |
| 2026-04-28 12:19 | 42.04789 | 73.75948 | 38044 ft | 381 kts | 250° |
| 2026-04-28 12:20 | 42.03057 | 73.69206 | 38045 ft | 382 kts | 251° |
| 2026-04-28 12:20 | 42.01375 | 73.62420 | 38026 ft | 383 kts | 251° |
| 2026-04-28 12:21 | 41.99680 | 73.55627 | 38024 ft | 384 kts | 251° |
| 2026-04-28 12:21 | 41.97955 | 73.48820 | 38016 ft | 385 kts | 250° |
| 2026-04-28 12:22 | 41.96241 | 73.42067 | 38018 ft | 384 kts | 251° |
| 2026-04-28 12:22 | 41.94521 | 73.35275 | 38003 ft | 385 kts | 251° |
| 2026-04-28 12:23 | 41.92794 | 73.28469 | 38000 ft | 385 kts | 250° |
| 2026-04-28 12:23 | 41.91049 | 73.21666 | 37979 ft | 386 kts | 250° |
| 2026-04-28 12:24 | 41.89280 | 73.14844 | 37984 ft | 387 kts | 250° |
| 2026-04-28 12:24 | 41.87495 | 73.08017 | 37967 ft | 388 kts | 250° |
| 2026-04-28 12:25 | 41.85723 | 73.01180 | 37966 ft | 388 kts | 250° |
| 2026-04-28 12:25 | 41.83949 | 72.94338 | 37962 ft | 389 kts | 250° |
| 2026-04-28 12:26 | 41.82169 | 72.87482 | 37957 ft | 390 kts | 250° |
| 2026-04-28 12:26 | 41.80382 | 72.80603 | 37958 ft | 391 kts | 250° |
| 2026-04-28 12:27 | 41.78579 | 72.73708 | 37956 ft | 392 kts | 250° |
| 2026-04-28 12:27 | 41.76769 | 72.66807 | 37966 ft | 392 kts | 250° |
| 2026-04-28 12:28 | 41.74965 | 72.59960 | 37973 ft | 393 kts | 250° |
| 2026-04-28 12:28 | 41.73138 | 72.53050 | 37964 ft | 394 kts | 250° |
| 2026-04-28 12:29 | 41.70381 | 72.42617 | 37981 ft | 397 kts | 250° |
| 2026-04-28 12:30 | 41.68532 | 72.35682 | 37972 ft | 396 kts | 249° |
| 2026-04-28 12:30 | 41.66680 | 72.28730 | 37977 ft | 397 kts | 250° |
| 2026-04-28 12:31 | 41.64823 | 72.21784 | 37981 ft | 397 kts | 250° |
| 2026-04-28 12:31 | 41.62965 | 72.14822 | 37977 ft | 398 kts | 250° |
| 2026-04-28 12:32 | 41.61100 | 72.07846 | 37966 ft | 399 kts | 249° |
| 2026-04-28 12:32 | 41.59215 | 72.00879 | 37945 ft | 398 kts | 249° |
| 2026-04-28 12:33 | 41.57329 | 71.93931 | 37949 ft | 398 kts | 249° |
| 2026-04-28 12:33 | 41.55446 | 71.86979 | 37951 ft | 399 kts | 249° |
| 2026-04-28 12:34 | 41.53567 | 71.80060 | 37956 ft | 400 kts | 249° |
| 2026-04-28 12:34 | 41.51664 | 71.73085 | 37954 ft | 400 kts | 249° |
| 2026-04-28 12:35 | 41.49760 | 71.66104 | 37963 ft | 401 kts | 249° |
| 2026-04-28 12:35 | 41.47848 | 71.59121 | 37966 ft | 401 kts | 249° |
| 2026-04-28 12:36 | 41.45922 | 71.52133 | 37984 ft | 402 kts | 249° |
| 2026-04-28 12:36 | 41.43995 | 71.45138 | 37982 ft | 402 kts | 249° |
| 2026-04-28 12:37 | 41.42061 | 71.38139 | 37978 ft | 403 kts | 249° |
| 2026-04-28 12:37 | 41.40121 | 71.31131 | 37979 ft | 403 kts | 249° |
| 2026-04-28 12:38 | 41.38173 | 71.24133 | 37978 ft | 403 kts | 249° |
| 2026-04-28 12:38 | 41.36224 | 71.17139 | 37981 ft | 403 kts | 249° |
| 2026-04-28 12:39 | 41.34275 | 71.10144 | 37994 ft | 403 kts | 249° |
| 2026-04-28 12:39 | 41.32336 | 71.03213 | 37987 ft | 403 kts | 249° |
| 2026-04-28 12:40 | 41.30367 | 70.96218 | 38009 ft | 404 kts | 249° |
| 2026-04-28 12:40 | 41.28395 | 70.89223 | 38009 ft | 404 kts | 249° |
| 2026-04-28 12:41 | 41.26420 | 70.82239 | 38025 ft | 404 kts | 249° |
| 2026-04-28 12:41 | 41.24761 | 70.76369 | 38022 ft | 405 kts | 249° |
| 2026-04-28 12:42 | 41.22788 | 70.69396 | 38045 ft | 406 kts | 249° |
| 2026-04-28 12:42 | 41.20797 | 70.62388 | 38045 ft | 406 kts | 249° |
| 2026-04-28 12:43 | 41.18798 | 70.55372 | 38059 ft | 406 kts | 249° |
| 2026-04-28 12:43 | 41.16790 | 70.48364 | 38049 ft | 406 kts | 249° |
| 2026-04-28 12:44 | 41.14780 | 70.41358 | 38055 ft | 406 kts | 249° |
| 2026-04-28 12:44 | 41.12764 | 70.34353 | 38058 ft | 406 kts | 249° |
| 2026-04-28 12:45 | 41.10744 | 70.27363 | 38053 ft | 406 kts | 248° |
| 2026-04-28 12:45 | 41.08370 | 70.20588 | 38036 ft | 406 kts | 242° |
| 2026-04-28 12:46 | 41.05676 | 70.14009 | 38020 ft | 406 kts | 242° |
| 2026-04-28 12:46 | 41.02975 | 70.07420 | 38019 ft | 407 kts | 242° |
| 2026-04-28 12:47 | 41.00271 | 70.00822 | 37533 ft | 409 kts | 242° |
| 2026-04-28 12:47 | 40.98911 | 69.97507 | 36759 ft | 410 kts | 241° |
| 2026-04-28 12:47 | 40.97546 | 69.94185 | 35985 ft | 411 kts | 241° |
| 2026-04-28 12:47 | 40.96177 | 69.90855 | 35140 ft | 412 kts | 240° |
| 2026-04-28 12:48 | 40.94801 | 69.87521 | 34219 ft | 414 kts | 240° |
| 2026-04-28 12:48 | 40.93424 | 69.84163 | 33226 ft | 416 kts | 242° |
| 2026-04-28 12:48 | 40.92354 | 69.80619 | 32632 ft | 412 kts | 251° |
| 2026-04-28 12:48 | 40.91741 | 69.76938 | 32021 ft | 410 kts | 260° |
| 2026-04-28 12:49 | 40.91584 | 69.73233 | 31414 ft | 408 kts | 268° |
| 2026-04-28 12:49 | 40.91633 | 69.69496 | 30802 ft | 405 kts | 269° |
| 2026-04-28 12:49 | 40.91680 | 69.65790 | 30173 ft | 402 kts | 269° |
| 2026-04-28 12:49 | 40.91726 | 69.62107 | 29511 ft | 399 kts | 270° |
| 2026-04-28 12:50 | 40.91770 | 69.58469 | 28924 ft | 394 kts | 270° |
| 2026-04-28 12:50 | 40.91815 | 69.54865 | 28343 ft | 390 kts | 270° |
| 2026-04-28 12:50 | 40.91858 | 69.51295 | 27753 ft | 387 kts | 270° |
| 2026-04-28 12:50 | 40.91900 | 69.47753 | 27187 ft | 384 kts | 270° |
| 2026-04-28 12:51 | 40.91940 | 69.44226 | 26645 ft | 382 kts | 270° |
| 2026-04-28 12:51 | 40.91982 | 69.40718 | 26103 ft | 381 kts | 270° |
| 2026-04-28 12:51 | 40.92026 | 69.37222 | 25581 ft | 380 kts | 270° |
| 2026-04-28 12:51 | 40.92068 | 69.33721 | 25063 ft | 379 kts | 270° |
| 2026-04-28 12:52 | 40.92105 | 69.30241 | 24565 ft | 379 kts | 270° |
| 2026-04-28 12:52 | 40.92139 | 69.26757 | 24061 ft | 378 kts | 271° |
| 2026-04-28 12:52 | 40.92172 | 69.23283 | 23554 ft | 377 kts | 271° |
| 2026-04-28 12:52 | 40.92202 | 69.19816 | 22984 ft | 376 kts | 271° |
| 2026-04-28 12:53 | 40.92232 | 69.16377 | 22466 ft | 373 kts | 271° |
| 2026-04-28 12:53 | 40.92263 | 69.13005 | 21936 ft | 370 kts | 271° |
| 2026-04-28 12:53 | 40.92303 | 69.09613 | 21323 ft | 369 kts | 273° |
| 2026-04-28 12:53 | 40.92802 | 69.06304 | 20702 ft | 368 kts | 291° |
| 2026-04-28 12:54 | 40.94073 | 69.03387 | 20085 ft | 367 kts | 309° |
| 2026-04-28 12:54 | 40.95989 | 69.01169 | 19435 ft | 368 kts | 328° |
| 2026-04-28 12:54 | 40.98353 | 68.99892 | 18777 ft | 370 kts | 347° |
| 2026-04-28 12:54 | 41.00895 | 68.99355 | 18099 ft | 370 kts | 351° |
| 2026-04-28 12:55 | 41.03444 | 68.98866 | 17408 ft | 369 kts | 352° |
| 2026-04-28 12:55 | 41.05972 | 68.98388 | 16765 ft | 366 kts | 353° |
| 2026-04-28 12:55 | 41.08488 | 68.98547 | 16123 ft | 364 kts | 14° |
| 2026-04-28 12:55 | 41.10738 | 69.00021 | 15486 ft | 363 kts | 38° |
| 2026-04-28 12:56 | 41.12331 | 69.02578 | 14836 ft | 362 kts | 63° |
| 2026-04-28 12:56 | 41.13038 | 69.05768 | 14203 ft | 361 kts | 81° |
| 2026-04-28 12:56 | 41.13413 | 69.09046 | 13603 ft | 358 kts | 81° |
| 2026-04-28 12:56 | 41.13774 | 69.12306 | 12967 ft | 356 kts | 81° |
| 2026-04-28 12:57 | 41.14128 | 69.15533 | 12426 ft | 350 kts | 81° |
| 2026-04-28 12:57 | 41.14481 | 69.18704 | 11887 ft | 345 kts | 81° |
| 2026-04-28 12:57 | 41.14836 | 69.21828 | 11354 ft | 341 kts | 80° |
| 2026-04-28 12:57 | 41.15190 | 69.24922 | 10825 ft | 338 kts | 81° |
| 2026-04-28 12:58 | 41.15540 | 69.27985 | 10306 ft | 335 kts | 80° |
| 2026-04-28 12:58 | 41.15879 | 69.30985 | 10139 ft | 321 kts | 80° |
| 2026-04-28 12:58 | 41.16194 | 69.33810 | 10061 ft | 306 kts | 81° |
| 2026-04-28 12:58 | 41.16498 | 69.36542 | 9891 ft | 295 kts | 81° |
| 2026-04-28 12:59 | 41.16800 | 69.39261 | 9362 ft | 299 kts | 80° |
| 2026-04-28 12:59 | 41.17104 | 69.41992 | 8897 ft | 299 kts | 80° |
| 2026-04-28 12:59 | 41.17401 | 69.44675 | 8417 ft | 288 kts | 80° |
| 2026-04-28 12:59 | 41.17685 | 69.47247 | 7965 ft | 276 kts | 79° |
| 2026-04-28 13:00 | 41.17984 | 69.49710 | 7528 ft | 264 kts | 73° |
| 2026-04-28 13:00 | 41.18842 | 69.51749 | 7124 ft | 249 kts | 41° |
| 2026-04-28 13:00 | 41.20344 | 69.52774 | 6739 ft | 246 kts | 8° |
| 2026-04-28 13:00 | 41.22049 | 69.52696 | 6284 ft | 243 kts | 353° |
| 2026-04-28 13:01 | 41.23694 | 69.52418 | 5867 ft | 235 kts | 353° |
| 2026-04-28 13:01 | 41.25286 | 69.52139 | 5470 ft | 226 kts | 352° |
| 2026-04-28 13:01 | 41.26800 | 69.51766 | 5099 ft | 218 kts | 338° |
| 2026-04-28 13:01 | 41.27899 | 69.50408 | 4732 ft | 224 kts | 296° |
| 2026-04-28 13:02 | 41.28149 | 69.48367 | 4371 ft | 224 kts | 270° |
| 2026-04-28 13:02 | 41.27971 | 69.46357 | 4022 ft | 214 kts | 263° |
| 2026-04-28 13:02 | 41.27691 | 69.44469 | 3740 ft | 201 kts | 261° |
| 2026-04-28 13:02 | 41.27394 | 69.42743 | 3507 ft | 183 kts | 258° |
| 2026-04-28 13:03 | 41.27056 | 69.41174 | 3178 ft | 172 kts | 257° |
| 2026-04-28 13:03 | 41.26804 | 69.39699 | 2940 ft | 157 kts | 264° |
| 2026-04-28 13:03 | 41.26670 | 69.38312 | 2673 ft | 150 kts | 267° |
| 2026-04-28 13:03 | 41.26582 | 69.36963 | 2447 ft | 142 kts | 267° |
| 2026-04-28 13:04 | 41.26471 | 69.35696 | 2223 ft | 135 kts | 264° |
| 2026-04-28 13:04 | 41.26344 | 69.34471 | 1965 ft | 131 kts | 264° |
| 2026-04-28 13:04 | 41.26200 | 69.33286 | 1919 ft | 131 kts | 262° |
| 2026-04-28 13:04 | 41.26068 | 69.32095 | 1727 ft | 130 kts | 265° |
| 2026-04-28 13:05 | 41.25952 | 69.30919 | 1540 ft | 128 kts | 265° |
| 2026-04-28 13:05 | 41.25833 | 69.29767 | 1407 ft | 117 kts | 264° |
| 2026-04-28 13:05 | 41.25739 | 69.28860 | 1402 ft | 82 kts | 262° |
| 2026-04-28 13:05 | 41.25668 | 69.28228 | 1408 ft | 60 kts | 262° |
| 2026-04-28 13:06 | 41.25622 | 69.27812 | 1411 ft | 20 kts | 257° |
| 2026-04-28 13:06 | 41.25649 | 69.27724 | 1410 ft | 11 kts | 317° |
| 2026-04-28 13:06 | 41.25709 | 69.27660 | 1410 ft | 14 kts | 322° |
| 2026-04-28 13:06 | 41.25795 | 69.27560 | 1412 ft | 19 kts | 313° |
| 2026-04-28 13:07 | 41.25878 | 69.27452 | 1403 ft | 19 kts | 320° |
| 2026-04-28 13:07 | 41.25956 | 69.27364 | 1402 ft | 6 kts | 319° |
| 2026-04-28 13:07 | 41.25957 | 69.27363 | 1401 ft | 0 kts | 319° |
| 2026-04-28 13:08 | 41.25970 | 69.27347 | 1401 ft | 6 kts | 319° |
| 2026-04-28 13:08 | 41.26017 | 69.27294 | 1404 ft | 12 kts | 319° |
| 2026-04-28 13:08 | 41.26079 | 69.27222 | 1399 ft | 13 kts | 318° |
| 2026-04-28 13:09 | 41.26135 | 69.27202 | 1402 ft | 5 kts | 64° |
| 2026-04-28 13:09 | 41.26136 | 69.27264 | 1400 ft | 9 kts | 84° |
| 2026-04-28 13:09 | 41.26149 | 69.27350 | 1397 ft | 7 kts | 48° |
| 2026-04-28 13:09 | 41.26164 | 69.27386 | 1403 ft | 6 kts | 107° |
| 2026-04-28 13:10 | 41.26154 | 69.27487 | 1405 ft | 12 kts | 70° |
| 2026-04-28 13:10 | 41.26204 | 69.27488 | 1403 ft | 9 kts | 343° |
| 2026-04-28 13:10 | 41.26234 | 69.27400 | 1398 ft | 13 kts | 280° |
| 2026-04-28 13:10 | 41.26235 | 69.27328 | 1397 ft | 2 kts | 268° |
| 2026-04-28 13:11 | 41.26235 | 69.27327 | 1397 ft | 0 kts | 268° |